createdAt,value
2023-05-22T00:01:56.691Z,16.72
2023-05-22T00:04:24.668Z,16.64
2023-05-22T00:06:53.243Z,16.52
2023-05-22T00:09:20.944Z,16.50
2023-05-22T00:11:48.874Z,16.35
2023-05-22T00:14:18.218Z,16.28
2023-05-22T00:16:46.254Z,16.24
2023-05-22T00:19:19.310Z,16.11
2023-05-22T00:21:47.141Z,16.06
2023-05-22T00:24:14.992Z,15.99
2023-05-22T00:26:42.770Z,15.97
2023-05-22T00:29:10.907Z,15.91
2023-05-22T00:31:40.066Z,15.82
2023-05-22T00:34:08.370Z,15.86
2023-05-22T00:36:36.199Z,15.70
2023-05-22T00:39:04.060Z,15.74
2023-05-22T00:41:33.939Z,15.59
2023-05-22T00:44:03.059Z,15.49
2023-05-22T00:46:31.242Z,15.55
2023-05-22T00:49:00.703Z,15.47
2023-05-22T00:51:29.035Z,15.46
2023-05-22T00:53:57.339Z,15.44
2023-05-22T00:56:27.024Z,15.55
2023-05-22T00:58:55.134Z,15.48
2023-05-22T01:01:23.137Z,15.45
2023-05-22T01:03:53.899Z,15.45
2023-05-22T01:06:23.318Z,15.47
2023-05-22T01:08:51.121Z,15.30
2023-05-22T01:11:26.543Z,15.30
2023-05-22T01:14:02.368Z,15.26
2023-05-22T01:16:38.425Z,15.15
2023-05-22T01:19:18.329Z,15.08
2023-05-22T01:21:58.757Z,14.88
2023-05-22T01:24:54.216Z,15.05
2023-05-22T01:27:44.032Z,14.82
2023-05-22T01:30:53.448Z,14.80
2023-05-22T01:33:26.097Z,14.63
2023-05-22T01:35:58.555Z,14.65
2023-05-22T01:38:26.913Z,14.48
2023-05-22T01:40:55.999Z,14.63
2023-05-22T01:43:23.838Z,14.82
2023-05-22T01:45:51.841Z,14.58
2023-05-22T01:48:19.676Z,14.35
2023-05-22T01:50:55.128Z,14.42
2023-05-22T01:53:31.688Z,14.32
2023-05-22T01:56:08.513Z,14.41
2023-05-22T01:58:47.623Z,14.28
2023-05-22T02:01:18.529Z,14.15
2023-05-22T02:03:48.363Z,14.14
2023-05-22T02:06:18.525Z,14.08
2023-05-22T02:08:47.132Z,14.02
2023-05-22T02:11:17.580Z,13.99
2023-05-22T02:13:45.444Z,14.04
2023-05-22T02:16:14.491Z,14.17
2023-05-22T02:18:43.724Z,14.16
2023-05-22T02:21:11.828Z,14.04
2023-05-22T02:23:41.198Z,13.99
2023-05-22T02:26:09.401Z,13.90
2023-05-22T02:28:37.936Z,14.00
2023-05-22T02:31:05.867Z,14.09
2023-05-22T02:33:33.776Z,14.09
2023-05-22T02:36:01.577Z,14.02
2023-05-22T02:38:29.359Z,14.06
2023-05-22T02:40:58.579Z,14.12
2023-05-22T02:43:26.351Z,14.16
2023-05-22T02:45:54.431Z,14.18
2023-05-22T02:48:22.615Z,14.10
2023-05-22T02:50:50.428Z,14.01
2023-05-22T02:53:18.219Z,13.89
2023-05-22T02:55:46.012Z,13.96
2023-05-22T02:58:15.378Z,13.87
2023-05-22T03:00:43.308Z,13.72
2023-05-22T03:03:13.936Z,13.73
2023-05-22T03:05:43.329Z,13.69
2023-05-22T03:08:11.189Z,13.86
2023-05-22T03:10:39.758Z,13.81
2023-05-22T03:13:08.061Z,13.70
2023-05-22T03:15:37.221Z,13.87
2023-05-22T03:18:05.171Z,13.70
2023-05-22T03:20:34.023Z,13.64
2023-05-22T03:23:01.794Z,13.71
2023-05-22T03:25:29.594Z,13.65
2023-05-22T03:27:57.726Z,13.64
2023-05-22T03:30:25.524Z,13.77
2023-05-22T03:32:54.710Z,13.62
2023-05-22T03:35:23.308Z,13.53
2023-05-22T03:37:51.038Z,13.55
2023-05-22T03:40:19.175Z,13.54
2023-05-22T03:42:47.102Z,13.55
2023-05-22T03:45:14.930Z,13.67
2023-05-22T03:47:42.831Z,13.67
2023-05-22T03:50:12.420Z,13.61
2023-05-22T03:52:40.204Z,13.68
2023-05-22T03:55:09.461Z,13.59
2023-05-22T03:57:37.222Z,13.66
2023-05-22T04:00:10.106Z,13.68
2023-05-22T04:02:39.904Z,13.73
2023-05-22T04:05:09.617Z,13.78
2023-05-22T04:07:39.007Z,13.82
2023-05-22T04:10:07.706Z,13.88
2023-05-22T04:12:35.961Z,13.96
2023-05-22T04:15:03.906Z,14.08
2023-05-22T04:17:35.078Z,14.02
2023-05-22T04:20:05.338Z,13.98
2023-05-22T04:22:33.187Z,13.98
2023-05-22T04:25:02.774Z,14.13
2023-05-22T04:27:30.513Z,14.22
2023-05-22T04:30:00.031Z,14.27
2023-05-22T04:32:29.616Z,14.34
2023-05-22T04:34:58.429Z,14.60
2023-05-22T04:37:28.746Z,14.72
2023-05-22T04:39:58.287Z,14.74
2023-05-22T04:42:28.235Z,14.73
2023-05-22T04:44:58.166Z,14.81
2023-05-22T04:47:26.282Z,14.84
2023-05-22T04:49:54.000Z,14.81
2023-05-22T04:52:22.385Z,14.94
2023-05-22T04:54:52.157Z,15.06
2023-05-22T04:57:21.279Z,15.18
2023-05-22T04:59:50.442Z,15.22
2023-05-22T05:02:18.257Z,15.21
2023-05-22T05:04:47.432Z,15.30
2023-05-22T05:07:18.708Z,15.46
2023-05-22T05:09:46.858Z,15.57
2023-05-22T05:12:14.660Z,15.74
2023-05-22T05:14:42.515Z,15.83
2023-05-22T05:17:11.657Z,15.92
2023-05-22T05:19:39.830Z,15.85
2023-05-22T05:22:07.745Z,15.90
2023-05-22T05:24:35.657Z,16.08
2023-05-22T05:27:03.544Z,16.06
2023-05-22T05:29:31.358Z,16.13
2023-05-22T05:31:59.146Z,16.14
2023-05-22T05:34:28.428Z,16.32
2023-05-22T05:36:57.684Z,16.49
2023-05-22T05:39:25.463Z,16.44
2023-05-22T05:41:53.255Z,16.75
2023-05-22T05:44:21.699Z,17.01
2023-05-22T05:46:49.943Z,17.28
2023-05-22T05:49:18.174Z,17.39
2023-05-22T05:51:47.262Z,17.67
2023-05-22T05:54:15.061Z,17.97
2023-05-22T05:56:42.898Z,18.09
2023-05-22T05:59:10.907Z,18.02
2023-05-22T06:01:39.811Z,18.11
2023-05-22T06:04:09.091Z,18.07
2023-05-22T06:06:37.043Z,18.46
2023-05-22T06:09:06.756Z,18.70
2023-05-22T06:11:34.715Z,18.73
2023-05-22T06:14:04.011Z,18.85
2023-05-22T06:16:32.049Z,18.83
2023-05-22T06:19:00.760Z,19.04
2023-05-22T06:21:28.662Z,19.31
2023-05-22T06:23:56.578Z,19.27
2023-05-22T06:26:26.167Z,19.58
2023-05-22T06:28:54.655Z,19.64
2023-05-22T06:31:24.505Z,19.96
2023-05-22T06:33:52.558Z,20.50
2023-05-22T06:36:20.466Z,20.55
2023-05-22T06:38:49.636Z,20.55
2023-05-22T06:41:17.448Z,20.49
2023-05-22T06:43:47.214Z,20.70
2023-05-22T06:46:15.100Z,20.69
2023-05-22T06:48:42.827Z,20.55
2023-05-22T06:51:11.754Z,20.67
2023-05-22T06:53:39.665Z,20.98
2023-05-22T06:56:07.829Z,21.17
2023-05-22T06:58:35.577Z,21.12
2023-05-22T07:01:05.119Z,21.17
2023-05-22T07:03:33.108Z,21.49
2023-05-22T07:06:00.960Z,21.85
2023-05-22T07:08:30.578Z,21.75
2023-05-22T07:10:58.743Z,22.14
2023-05-22T07:13:26.576Z,22.18
2023-05-22T07:15:54.387Z,22.10
2023-05-22T07:18:23.751Z,22.36
2023-05-22T07:20:51.586Z,22.40
2023-05-22T07:23:19.625Z,22.68
2023-05-22T07:25:47.803Z,22.93
2023-05-22T07:28:15.902Z,23.23
2023-05-22T07:30:43.752Z,23.62
2023-05-22T07:33:11.706Z,23.67
2023-05-22T07:35:41.016Z,24.30
2023-05-22T07:38:08.813Z,23.76
2023-05-22T07:40:36.825Z,24.46
2023-05-22T07:43:04.738Z,23.79
2023-05-22T07:45:32.642Z,24.22
2023-05-22T07:48:01.965Z,25.49
2023-05-22T07:50:30.777Z,25.36
2023-05-22T07:52:59.945Z,25.44
2023-05-22T07:55:30.370Z,25.61
2023-05-22T07:57:58.165Z,25.39
2023-05-22T08:00:25.990Z,26.49
2023-05-22T08:02:54.183Z,27.23
2023-05-22T08:05:22.073Z,26.82
2023-05-22T08:07:50.005Z,26.00
2023-05-22T08:10:20.324Z,26.45
2023-05-22T08:12:48.195Z,26.94
2023-05-22T08:15:16.066Z,26.43
2023-05-22T08:17:43.904Z,27.47
2023-05-22T08:20:13.168Z,27.16
2023-05-22T08:22:41.399Z,27.33
2023-05-22T08:25:10.293Z,27.63
2023-05-22T08:27:39.460Z,28.12
2023-05-22T08:30:08.970Z,28.41
2023-05-22T08:32:36.765Z,27.83
2023-05-22T08:35:05.231Z,28.56
2023-05-22T08:37:33.024Z,28.86
2023-05-22T08:40:00.987Z,26.72
2023-05-22T08:42:28.861Z,28.01
2023-05-22T08:45:01.005Z,28.02
2023-05-22T08:47:29.747Z,27.92
2023-05-22T08:49:59.585Z,28.23
2023-05-22T08:52:36.358Z,28.49
2023-05-22T08:55:06.129Z,29.92
2023-05-22T08:57:35.137Z,30.09
2023-05-22T09:00:06.052Z,30.26
2023-05-22T09:02:34.657Z,28.82
2023-05-22T09:05:05.381Z,28.97
2023-05-22T09:07:33.250Z,28.68
2023-05-22T09:10:01.177Z,30.00
2023-05-22T09:12:29.280Z,30.08
2023-05-22T09:14:58.763Z,30.45
2023-05-22T09:17:28.303Z,31.05
2023-05-22T09:19:56.526Z,32.30
2023-05-22T09:22:24.572Z,30.09
2023-05-22T09:24:52.726Z,31.24
2023-05-22T09:27:25.041Z,29.77
2023-05-22T09:29:54.658Z,30.26
2023-05-22T09:32:24.503Z,30.62
2023-05-22T09:34:53.776Z,31.00
2023-05-22T09:37:21.628Z,31.77
2023-05-22T09:39:51.475Z,30.71
2023-05-22T09:42:19.577Z,31.18
2023-05-22T09:44:49.884Z,31.39
2023-05-22T09:47:17.838Z,31.87
2023-05-22T09:49:46.907Z,31.69
2023-05-22T09:52:18.151Z,32.28
2023-05-22T09:54:48.513Z,31.81
2023-05-22T09:57:19.459Z,32.48
2023-05-22T09:59:54.018Z,32.97
2023-05-22T10:02:23.954Z,33.41
2023-05-22T10:04:53.051Z,32.96
2023-05-22T10:07:23.984Z,34.17
2023-05-22T10:09:55.959Z,32.78
2023-05-22T10:12:25.210Z,31.20
2023-05-22T10:14:54.946Z,31.46
2023-05-22T10:17:23.053Z,32.80
2023-05-22T10:19:51.746Z,32.86
2023-05-22T10:22:22.585Z,32.97
2023-05-22T10:24:52.503Z,32.46
2023-05-22T10:27:20.377Z,32.36
2023-05-22T10:29:54.180Z,33.63
2023-05-22T10:32:30.654Z,32.28
2023-05-22T10:35:07.100Z,33.70
2023-05-22T10:37:46.708Z,34.21
2023-05-22T10:40:20.027Z,34.20
2023-05-22T10:42:48.538Z,33.30
2023-05-22T10:45:17.725Z,33.61
2023-05-22T10:47:45.835Z,33.80
2023-05-22T10:50:13.778Z,35.61
2023-05-22T10:52:41.603Z,34.75
2023-05-22T10:55:11.648Z,33.73
2023-05-22T10:57:41.243Z,33.36
2023-05-22T11:00:11.429Z,33.25
2023-05-22T11:02:44.026Z,33.97
2023-05-22T11:05:35.209Z,34.49
2023-05-22T11:08:47.285Z,34.70
2023-05-22T11:11:15.523Z,36.38
2023-05-22T11:13:44.741Z,35.29
2023-05-22T11:16:12.664Z,34.28
2023-05-22T11:18:40.640Z,35.18
2023-05-22T11:21:11.306Z,34.77
2023-05-22T11:23:39.124Z,34.17
2023-05-22T11:26:20.320Z,35.09
2023-05-22T11:28:53.542Z,35.14
2023-05-22T11:31:23.994Z,34.34
2023-05-22T11:33:51.698Z,34.79
2023-05-22T11:36:20.091Z,33.48
2023-05-22T11:38:47.899Z,34.92
2023-05-22T11:41:17.181Z,35.90
2023-05-22T11:43:45.222Z,35.90
2023-05-22T11:46:15.318Z,34.57
2023-05-22T11:48:43.738Z,35.66
2023-05-22T11:51:11.725Z,34.79
2023-05-22T11:53:39.616Z,34.49
2023-05-22T11:56:08.449Z,33.44
2023-05-22T11:58:36.169Z,33.87
2023-05-22T12:01:05.638Z,33.94
2023-05-22T12:03:34.883Z,34.70
2023-05-22T12:06:03.641Z,33.53
2023-05-22T12:08:31.685Z,34.28
2023-05-22T12:10:59.468Z,33.74
2023-05-22T12:13:29.864Z,32.95
2023-05-22T12:16:00.332Z,33.62
2023-05-22T12:18:28.703Z,35.71
2023-05-22T12:20:57.987Z,35.86
2023-05-22T12:23:26.354Z,36.16
2023-05-22T12:26:01.548Z,35.04
2023-05-22T12:28:29.403Z,34.99
2023-05-22T12:30:57.563Z,34.65
2023-05-22T12:33:29.160Z,33.31
2023-05-22T12:35:59.354Z,33.54
2023-05-22T12:38:27.902Z,34.29
2023-05-22T12:40:56.645Z,35.60
2023-05-22T12:43:25.283Z,34.39
2023-05-22T12:45:53.286Z,33.57
2023-05-22T12:48:21.121Z,34.42
2023-05-22T12:50:48.923Z,33.77
2023-05-22T12:53:18.129Z,35.60
2023-05-22T12:55:45.934Z,35.47
2023-05-22T12:58:13.737Z,35.41
2023-05-22T13:00:41.800Z,35.39
2023-05-22T13:03:09.867Z,35.74
2023-05-22T13:05:37.967Z,35.96
2023-05-22T13:08:05.981Z,35.25
2023-05-22T13:10:35.455Z,34.97
2023-05-22T13:13:03.249Z,35.33
2023-05-22T13:15:32.496Z,36.30
2023-05-22T13:18:00.474Z,35.46
2023-05-22T13:20:28.277Z,36.33
2023-05-22T13:22:56.024Z,35.38
2023-05-22T13:25:24.042Z,36.65
2023-05-22T13:27:53.218Z,35.74
2023-05-22T13:30:21.109Z,35.11
2023-05-22T13:32:48.880Z,35.74
2023-05-22T13:35:16.776Z,35.63
2023-05-22T13:37:44.660Z,35.60
2023-05-22T13:40:12.808Z,36.36
2023-05-22T13:42:41.193Z,36.12
2023-05-22T13:45:11.843Z,35.72
2023-05-22T13:47:39.815Z,35.48
2023-05-22T13:50:09.190Z,33.96
2023-05-22T13:52:37.132Z,34.75
2023-05-22T13:55:05.326Z,33.24
2023-05-22T13:57:33.152Z,32.92
2023-05-22T14:00:00.954Z,34.10
2023-05-22T14:02:30.232Z,34.83
2023-05-22T14:04:58.155Z,35.06
2023-05-22T14:07:25.950Z,33.68
2023-05-22T14:09:53.800Z,33.25
2023-05-22T14:12:21.711Z,33.77
2023-05-22T14:14:49.514Z,35.77
2023-05-22T14:17:17.436Z,34.92
2023-05-22T14:19:46.625Z,36.26
2023-05-22T14:22:14.444Z,34.79
2023-05-22T14:24:42.270Z,33.38
2023-05-22T14:27:10.185Z,31.78
2023-05-22T14:29:37.937Z,32.31
2023-05-22T14:32:06.131Z,33.40
2023-05-22T14:34:33.982Z,33.57
2023-05-22T14:37:03.497Z,34.34
2023-05-22T14:39:31.613Z,33.77
2023-05-22T14:41:59.399Z,32.16
2023-05-22T14:44:27.148Z,31.35
2023-05-22T14:46:55.126Z,31.76
2023-05-22T14:49:22.977Z,31.20
2023-05-22T14:51:50.797Z,30.49
2023-05-22T14:54:20.542Z,29.13
2023-05-22T14:56:48.527Z,28.92
2023-05-22T14:59:16.333Z,28.33
2023-05-22T15:01:44.510Z,28.52
2023-05-22T15:04:12.542Z,27.67
2023-05-22T15:06:40.272Z,26.86
2023-05-22T15:09:08.676Z,27.48
2023-05-22T15:11:37.832Z,27.46
2023-05-22T15:14:05.878Z,27.88
2023-05-22T15:16:33.743Z,27.79
2023-05-22T15:19:02.040Z,27.93
2023-05-22T15:21:30.137Z,27.20
2023-05-22T15:23:58.879Z,27.42
2023-05-22T15:26:26.935Z,28.46
2023-05-22T15:29:01.191Z,28.31
2023-05-22T15:31:29.488Z,29.04
2023-05-22T15:33:57.879Z,28.88
2023-05-22T15:36:26.384Z,28.47
2023-05-22T15:38:54.209Z,28.58
2023-05-22T15:41:22.559Z,28.47
2023-05-22T15:43:52.429Z,27.78
2023-05-22T15:46:21.992Z,28.05
2023-05-22T15:48:50.068Z,27.80
2023-05-22T15:51:17.926Z,27.30
2023-05-22T15:53:46.292Z,27.50
2023-05-22T15:56:14.178Z,27.88
2023-05-22T15:58:42.016Z,27.43
2023-05-22T16:01:09.817Z,26.66
2023-05-22T16:03:39.085Z,26.28
2023-05-22T16:06:08.018Z,26.15
2023-05-22T16:08:35.750Z,25.92
2023-05-22T16:11:03.588Z,25.82
2023-05-22T16:13:31.950Z,25.42
2023-05-22T16:15:59.745Z,25.04
2023-05-22T16:18:27.576Z,25.38
2023-05-22T16:20:56.684Z,25.35
2023-05-22T16:23:24.535Z,25.11
2023-05-22T16:25:52.324Z,25.18
2023-05-22T16:28:20.033Z,25.32
2023-05-22T16:30:48.198Z,25.38
2023-05-22T16:33:15.981Z,25.32
2023-05-22T16:35:46.888Z,25.20
2023-05-22T16:38:16.261Z,24.89
2023-05-22T16:40:44.156Z,24.67
2023-05-22T16:43:13.754Z,24.47
2023-05-22T16:45:46.359Z,24.26
2023-05-22T16:48:14.350Z,24.45
2023-05-22T16:50:42.448Z,23.88
2023-05-22T16:53:10.282Z,24.12
2023-05-22T16:55:39.721Z,24.10
2023-05-22T16:58:09.070Z,24.07
2023-05-22T17:00:37.875Z,24.19
2023-05-22T17:03:06.776Z,23.84
2023-05-22T17:05:34.887Z,24.07
2023-05-22T17:08:03.138Z,23.71
2023-05-22T17:10:31.025Z,23.88
2023-05-22T17:13:00.515Z,23.86
2023-05-22T17:15:28.345Z,24.24
2023-05-22T17:17:56.147Z,24.50
2023-05-22T17:20:24.040Z,24.58
2023-05-22T17:22:52.490Z,24.51
2023-05-22T17:25:21.088Z,24.80
2023-05-22T17:27:49.311Z,25.16
2023-05-22T17:30:18.965Z,25.23
2023-05-22T17:32:46.892Z,25.45
2023-05-22T17:35:14.694Z,25.38
2023-05-22T17:37:42.477Z,25.36
2023-05-22T17:40:11.267Z,25.21
2023-05-22T17:42:39.292Z,25.25
2023-05-22T17:45:08.305Z,25.28
2023-05-22T17:47:37.424Z,25.10
2023-05-22T17:50:05.621Z,25.15
2023-05-22T17:52:33.382Z,25.00
2023-05-22T17:55:01.208Z,24.99
2023-05-22T17:57:29.370Z,24.84
2023-05-22T17:59:57.188Z,24.86
2023-05-22T18:02:26.486Z,24.76
2023-05-22T18:04:56.081Z,24.95
2023-05-22T18:07:23.960Z,24.75
2023-05-22T18:09:51.737Z,24.82
2023-05-22T18:14:50.370Z,24.75
2023-05-22T18:17:18.145Z,24.66
2023-05-22T18:19:45.949Z,24.70
2023-05-22T18:22:15.619Z,24.43
2023-05-22T18:24:43.437Z,24.15
2023-05-22T18:27:11.190Z,24.02
2023-05-22T18:29:39.546Z,23.80
2023-05-22T18:32:09.431Z,23.91
2023-05-22T18:34:37.621Z,23.90
2023-05-22T18:37:05.734Z,23.61
2023-05-22T18:39:34.831Z,23.32
2023-05-22T18:42:02.985Z,23.40
2023-05-22T18:44:30.766Z,23.40
2023-05-22T18:46:58.695Z,23.35
2023-05-22T18:49:26.449Z,23.27
2023-05-22T18:51:54.213Z,23.21
2023-05-22T18:54:22.010Z,23.39
2023-05-22T18:56:51.444Z,23.03
2023-05-22T18:59:19.215Z,22.73
2023-05-22T19:01:47.029Z,22.14
2023-05-22T19:04:15.157Z,21.36
2023-05-22T19:06:43.048Z,20.87
2023-05-22T19:09:10.976Z,20.34
2023-05-22T19:11:38.894Z,19.89
2023-05-22T19:14:08.030Z,19.90
2023-05-22T19:16:35.866Z,19.80
2023-05-22T19:19:04.509Z,19.56
2023-05-22T19:21:32.558Z,19.40
2023-05-22T19:24:00.411Z,19.31
2023-05-22T19:26:28.208Z,19.16
2023-05-22T19:28:59.276Z,19.10
2023-05-22T19:31:29.451Z,19.13
2023-05-22T19:33:57.670Z,19.10
2023-05-22T19:36:25.580Z,19.09
2023-05-22T19:38:53.973Z,19.02
2023-05-22T19:41:22.865Z,19.02
2023-05-22T19:43:52.696Z,18.95
2023-05-22T19:46:20.535Z,19.05
2023-05-22T19:48:49.725Z,18.82
2023-05-22T19:51:17.532Z,18.90
2023-05-22T19:53:45.340Z,18.73
2023-05-22T19:56:13.377Z,18.68
2023-05-22T19:58:41.169Z,18.49
2023-05-22T20:01:09.063Z,18.64
2023-05-22T20:03:36.990Z,18.59
2023-05-22T20:06:07.394Z,18.80
2023-05-22T20:08:36.311Z,18.59
2023-05-22T20:11:04.150Z,18.50
2023-05-22T20:13:31.919Z,18.58
2023-05-22T20:16:02.661Z,18.64
2023-05-22T20:18:31.699Z,18.74
2023-05-22T20:20:59.683Z,18.89
2023-05-22T20:23:28.901Z,18.59
2023-05-22T20:25:56.830Z,18.40
2023-05-22T20:28:24.614Z,18.40
2023-05-22T20:30:52.490Z,18.56
2023-05-22T20:33:20.387Z,18.63
2023-05-22T20:35:49.838Z,18.43
2023-05-22T20:38:20.074Z,18.51
2023-05-22T20:40:49.605Z,18.39
2023-05-22T20:43:18.551Z,18.30
2023-05-22T20:45:46.935Z,18.41
2023-05-22T20:48:15.167Z,18.28
2023-05-22T20:50:43.454Z,18.34
2023-05-22T20:53:12.377Z,18.26
2023-05-22T20:55:40.541Z,18.47
2023-05-22T20:58:10.188Z,18.30
2023-05-22T21:00:38.131Z,18.40
2023-05-22T21:03:06.143Z,18.32
2023-05-22T21:05:33.994Z,18.25
2023-05-22T21:08:01.879Z,18.24
2023-05-22T21:10:29.729Z,18.34
2023-05-22T21:12:57.509Z,18.38
2023-05-22T21:15:26.704Z,18.44
2023-05-22T21:17:54.522Z,18.31
2023-05-22T21:20:22.846Z,18.42
2023-05-22T21:22:50.676Z,18.39
2023-05-22T21:25:18.528Z,18.26
2023-05-22T21:27:48.265Z,18.11
2023-05-22T21:30:16.572Z,18.04
2023-05-22T21:32:45.873Z,17.90
2023-05-22T21:35:13.750Z,17.82
2023-05-22T21:37:41.707Z,17.65
2023-05-22T21:40:10.235Z,18.05
2023-05-22T21:42:46.314Z,17.98
2023-05-22T21:45:15.074Z,17.82
2023-05-22T21:47:42.907Z,17.77
2023-05-22T21:50:13.106Z,17.65
2023-05-22T21:52:41.072Z,17.98
2023-05-22T21:55:09.234Z,17.91
2023-05-22T21:57:37.399Z,17.94
2023-05-22T22:00:06.026Z,17.78
2023-05-22T22:02:33.876Z,17.79
2023-05-22T22:05:01.791Z,17.76
2023-05-22T22:07:30.959Z,17.79
2023-05-22T22:09:59.365Z,17.94
2023-05-22T22:12:27.147Z,17.87
2023-05-22T22:14:55.171Z,17.85
2023-05-22T22:17:24.093Z,17.91
2023-05-22T22:19:53.647Z,17.84
2023-05-22T22:22:22.658Z,18.01
2023-05-22T22:24:51.887Z,18.09
2023-05-22T22:27:20.133Z,18.39
2023-05-22T22:29:49.124Z,18.14
2023-05-22T22:32:16.999Z,17.98
2023-05-22T22:34:45.662Z,18.24
2023-05-22T22:37:13.999Z,17.92
2023-05-22T22:39:41.788Z,18.37
2023-05-22T22:42:10.929Z,18.01
2023-05-22T22:44:38.713Z,17.91
2023-05-22T22:47:07.348Z,17.97
2023-05-22T22:49:35.195Z,17.94
2023-05-22T22:52:03.021Z,17.82
2023-05-22T22:54:31.018Z,17.77
2023-05-22T22:56:59.032Z,17.73
2023-05-22T22:59:28.189Z,17.77
2023-05-22T23:01:55.962Z,17.85
2023-05-22T23:04:23.920Z,17.82
2023-05-22T23:06:52.679Z,17.72
2023-05-22T23:09:20.640Z,17.55
2023-05-22T23:11:48.402Z,17.64
2023-05-22T23:14:17.999Z,17.42
2023-05-22T23:16:47.137Z,17.84
2023-05-22T23:19:15.332Z,17.79
2023-05-22T23:21:43.221Z,17.54
2023-05-22T23:24:11.247Z,17.07
2023-05-22T23:26:39.037Z,16.97
2023-05-22T23:29:08.488Z,17.03
2023-05-22T23:31:36.659Z,16.96
2023-05-22T23:34:05.883Z,16.95
2023-05-22T23:36:33.738Z,17.01
2023-05-22T23:39:01.693Z,16.89
2023-05-22T23:41:29.638Z,16.92
2023-05-22T23:43:57.494Z,16.91
2023-05-22T23:46:27.266Z,16.78
2023-05-22T23:48:55.029Z,16.77
2023-05-22T23:51:24.364Z,16.86
2023-05-22T23:53:52.187Z,16.69
2023-05-22T23:56:19.986Z,16.89
2023-05-22T23:58:47.792Z,16.79
